Aérodrome :
LOGIN :

S'inscrire | Disclaimer

   EN    FR    IT 

 










Légende :    VFR   VFR Marginal   IFR   IFR Intensif   IFR Très Intensif
Visi : 
Plafond : 
>= 8 km
>= 3000ft
5 à 8 km
1000 à 3000 ft
1500m à 5 km
500 à 1000 ft
800 à 1500m
200 à 500 ft
< 800m
< 200 ft
Symboles :   Orages  Brouillard  Fortes neiges  Fortes précipitations  Vent > 20 kt
SIGMETs :   Divers  Orages  Givrage  Turbulence  Onde Orograph.  Cendres Volcan.






- Altitude de l'aérodrome : 10 ft
- Code IATA : MOL


ENML - Molde

DERNIER METAR :
  • 250350Z AUTO 25016KT 9999NDV -SHRA VV016 03/01 Q1005

METARs EXPIRÉS :
  • 250320Z AUTO 24013KT 9999NDV BKN020/// OVC058/// 03/01 Q1005
  • 250250Z AUTO 29008KT 250V320 9999NDV SHRA BKN026/// OVC032/// 03/01 Q1006
  • 250220Z AUTO 25013KT 9999NDV -SHRA FEW023/// OVC031/// 04/M01 Q1006
  • 250150Z AUTO 26010KT 9999NDV OVC034/// 04/M01 Q1006
  • 250120Z AUTO 26011KT 9999NDV BKN037/// OVC048/// 04/M02 Q1006

Prévision TAF périmée.



MET'MAP, la Météo Aéronautique d'un coup d'oeil ! - Copyright ORBIFLY Décembre 2007 - Disclaimer

ORBIFLY MET'MAP TEAM :

Programmation & Développement : Alexandra Zaïnal
Sur une idée originale de : Baudouin d'Aumeries
Assistance à la programmation : Marc-Olivier Méhu
Soutien technique & logistique : Manuel Goepfert

Contact : metmap@orbifly.com




SOURCES & CREDITS :

   NOAA